sensor_id;sensor_type;location;lat;lon;timestamp;P1;durP1;ratioP1;P2;durP2;ratioP2
59014;SDS011;44799;53.382;14.666;2023-06-26T00:02:21;3.65;;;2.38;;
59014;SDS011;44799;53.382;14.666;2023-06-26T00:04:46;3.00;;;2.05;;
59014;SDS011;44799;53.382;14.666;2023-06-26T00:07:16;3.58;;;2.28;;
59014;SDS011;44799;53.382;14.666;2023-06-26T00:09:41;3.87;;;1.80;;
59014;SDS011;44799;53.382;14.666;2023-06-26T00:12:07;4.00;;;2.50;;
59014;SDS011;44799;53.382;14.666;2023-06-26T00:14:33;2.85;;;2.13;;
59014;SDS011;44799;53.382;14.666;2023-06-26T00:16:59;4.05;;;2.88;;
59014;SDS011;44799;53.382;14.666;2023-06-26T00:19:25;4.20;;;2.20;;
59014;SDS011;44799;53.382;14.666;2023-06-26T00:21:51;4.35;;;2.25;;
59014;SDS011;44799;53.382;14.666;2023-06-26T00:24:17;3.50;;;2.55;;
59014;SDS011;44799;53.382;14.666;2023-06-26T00:26:43;3.25;;;2.50;;
59014;SDS011;44799;53.382;14.666;2023-06-26T00:29:11;3.33;;;2.25;;
59014;SDS011;44799;53.382;14.666;2023-06-26T00:31:37;3.42;;;2.65;;
59014;SDS011;44799;53.382;14.666;2023-06-26T00:34:05;4.32;;;2.13;;
59014;SDS011;44799;53.382;14.666;2023-06-26T00:36:31;4.43;;;2.53;;
59014;SDS011;44799;53.382;14.666;2023-06-26T00:38:58;4.35;;;2.72;;
59014;SDS011;44799;53.382;14.666;2023-06-26T00:41:24;5.32;;;2.90;;
59014;SDS011;44799;53.382;14.666;2023-06-26T00:43:50;3.60;;;2.58;;
59014;SDS011;44799;53.382;14.666;2023-06-26T00:46:16;3.60;;;2.35;;
59014;SDS011;44799;53.382;14.666;2023-06-26T00:48:43;3.83;;;2.15;;
59014;SDS011;44799;53.382;14.666;2023-06-26T00:51:10;5.15;;;2.78;;
59014;SDS011;44799;53.382;14.666;2023-06-26T00:53:36;4.82;;;2.45;;
59014;SDS011;44799;53.382;14.666;2023-06-26T00:56:02;2.53;;;2.33;;
59014;SDS011;44799;53.382;14.666;2023-06-26T00:58:29;3.35;;;2.28;;
59014;SDS011;44799;53.382;14.666;2023-06-26T01:00:55;4.30;;;2.40;;
59014;SDS011;44799;53.382;14.666;2023-06-26T01:03:22;3.42;;;2.75;;
59014;SDS011;44799;53.382;14.666;2023-06-26T01:05:49;3.88;;;2.60;;
59014;SDS011;44799;53.382;14.666;2023-06-26T01:08:17;3.95;;;2.92;;
59014;SDS011;44799;53.382;14.666;2023-06-26T01:10:43;5.32;;;2.25;;
59014;SDS011;44799;53.382;14.666;2023-06-26T10:53:50;11.30;;;3.20;;
59014;SDS011;44799;53.382;14.666;2023-06-26T10:56:40;5.07;;;2.93;;
59014;SDS011;44799;53.382;14.666;2023-06-26T10:59:11;2.85;;;2.38;;
59014;SDS011;44799;53.382;14.666;2023-06-26T11:01:54;3.08;;;2.60;;
59014;SDS011;44799;53.382;14.666;2023-06-26T11:19:25;3.28;;;2.42;;
59014;SDS011;44799;53.382;14.666;2023-06-26T11:21:56;4.57;;;3.10;;
59014;SDS011;44799;53.382;14.666;2023-06-26T11:24:24;3.10;;;2.72;;
59014;SDS011;44799;53.382;14.666;2023-06-26T11:26:51;3.78;;;2.78;;
59014;SDS011;44799;53.382;14.666;2023-06-26T12:45:22;3.45;;;3.15;;
59014;SDS011;44799;53.382;14.666;2023-06-26T12:47:48;4.72;;;3.83;;
59014;SDS011;44799;53.382;14.666;2023-06-26T12:50:14;4.60;;;3.28;;
59014;SDS011;44799;53.382;14.666;2023-06-26T12:52:41;4.80;;;3.05;;
59014;SDS011;44799;53.382;14.666;2023-06-26T12:55:08;5.07;;;3.25;;
59014;SDS011;44799;53.382;14.666;2023-06-26T12:57:34;3.22;;;2.72;;
59014;SDS011;44799;53.382;14.666;2023-06-26T12:59:59;3.50;;;3.08;;
59014;SDS011;44799;53.382;14.666;2023-06-26T13:02:26;5.18;;;2.83;;
59014;SDS011;44799;53.382;14.666;2023-06-26T13:04:51;5.00;;;3.08;;
59014;SDS011;44799;53.382;14.666;2023-06-26T13:07:17;3.75;;;3.10;;
59014;SDS011;44799;53.382;14.666;2023-06-26T13:09:43;4.18;;;3.00;;
59014;SDS011;44799;53.382;14.666;2023-06-26T13:12:10;3.20;;;2.75;;
59014;SDS011;44799;53.382;14.666;2023-06-26T13:14:36;3.88;;;2.80;;
59014;SDS011;44799;53.382;14.666;2023-06-26T13:17:03;3.92;;;2.65;;
59014;SDS011;44799;53.382;14.666;2023-06-26T13:19:29;5.10;;;3.25;;
59014;SDS011;44799;53.382;14.666;2023-06-26T13:21:55;4.10;;;3.08;;
59014;SDS011;44799;53.382;14.666;2023-06-26T13:24:21;3.50;;;2.90;;
59014;SDS011;44799;53.382;14.666;2023-06-26T13:26:47;3.30;;;3.00;;
59014;SDS011;44799;53.382;14.666;2023-06-26T13:29:13;4.32;;;3.03;;
59014;SDS011;44799;53.382;14.666;2023-06-26T13:31:39;7.18;;;2.85;;
59014;SDS011;44799;53.382;14.666;2023-06-26T13:34:05;3.97;;;3.03;;
59014;SDS011;44799;53.382;14.666;2023-06-26T13:36:31;4.90;;;3.15;;
59014;SDS011;44799;53.382;14.666;2023-06-26T13:38:59;4.05;;;2.95;;
59014;SDS011;44799;53.382;14.666;2023-06-26T13:41:25;4.40;;;2.75;;
59014;SDS011;44799;53.382;14.666;2023-06-26T13:43:51;3.70;;;3.08;;
59014;SDS011;44799;53.382;14.666;2023-06-26T13:46:17;3.67;;;2.95;;
59014;SDS011;44799;53.382;14.666;2023-06-26T13:48:46;4.03;;;2.92;;
59014;SDS011;44799;53.382;14.666;2023-06-26T13:51:12;3.17;;;2.85;;
59014;SDS011;44799;53.382;14.666;2023-06-26T13:53:38;4.43;;;3.65;;
59014;SDS011;44799;53.382;14.666;2023-06-26T13:56:04;3.88;;;3.30;;
59014;SDS011;44799;53.382;14.666;2023-06-26T13:58:30;3.97;;;3.30;;
59014;SDS011;44799;53.382;14.666;2023-06-26T14:00:57;6.30;;;3.00;;
59014;SDS011;44799;53.382;14.666;2023-06-26T14:03:26;3.63;;;3.15;;
59014;SDS011;44799;53.382;14.666;2023-06-26T14:05:54;3.78;;;3.10;;
59014;SDS011;44799;53.382;14.666;2023-06-26T14:08:20;3.25;;;2.95;;
59014;SDS011;44799;53.382;14.666;2023-06-26T14:10:46;4.63;;;3.70;;
59014;SDS011;44799;53.382;14.666;2023-06-26T14:13:13;4.05;;;3.25;;
59014;SDS011;44799;53.382;14.666;2023-06-26T14:15:41;4.05;;;3.08;;
59014;SDS011;44799;53.382;14.666;2023-06-26T14:18:07;5.97;;;3.00;;
59014;SDS011;44799;53.382;14.666;2023-06-26T14:20:33;3.70;;;3.05;;
59014;SDS011;44799;53.382;14.666;2023-06-26T14:23:00;4.55;;;3.38;;
59014;SDS011;44799;53.382;14.666;2023-06-26T14:25:27;4.28;;;3.60;;
59014;SDS011;44799;53.382;14.666;2023-06-26T14:27:56;3.67;;;3.30;;
59014;SDS011;44799;53.382;14.666;2023-06-26T14:30:23;4.13;;;3.70;;
59014;SDS011;44799;53.382;14.666;2023-06-26T14:32:49;4.97;;;3.08;;
59014;SDS011;44799;53.382;14.666;2023-06-26T14:35:15;5.05;;;3.60;;
59014;SDS011;44799;53.382;14.666;2023-06-26T14:37:41;3.78;;;3.28;;
59014;SDS011;44799;53.382;14.666;2023-06-26T14:40:09;4.78;;;3.72;;
59014;SDS011;44799;53.382;14.666;2023-06-26T14:42:35;3.45;;;2.97;;
59014;SDS011;44799;53.382;14.666;2023-06-26T14:45:01;4.43;;;3.05;;
59014;SDS011;44799;53.382;14.666;2023-06-26T14:47:28;3.63;;;3.25;;
59014;SDS011;44799;53.382;14.666;2023-06-26T14:49:54;3.70;;;3.17;;
59014;SDS011;44799;53.382;14.666;2023-06-26T14:52:20;3.90;;;3.22;;
59014;SDS011;44799;53.382;14.666;2023-06-26T14:54:45;5.65;;;3.65;;
59014;SDS011;44799;53.382;14.666;2023-06-26T14:57:11;4.68;;;3.80;;
59014;SDS011;44799;53.382;14.666;2023-06-26T14:59:37;4.55;;;3.88;;
59014;SDS011;44799;53.382;14.666;2023-06-26T15:02:03;3.42;;;3.13;;
59014;SDS011;44799;53.382;14.666;2023-06-26T15:04:29;4.78;;;3.30;;
59014;SDS011;44799;53.382;14.666;2023-06-26T15:06:56;4.90;;;3.33;;
59014;SDS011;44799;53.382;14.666;2023-06-26T15:09:23;3.40;;;3.10;;
59014;SDS011;44799;53.382;14.666;2023-06-26T15:11:48;5.25;;;2.97;;
59014;SDS011;44799;53.382;14.666;2023-06-26T15:14:15;3.78;;;3.33;;
59014;SDS011;44799;53.382;14.666;2023-06-26T15:16:41;3.80;;;3.00;;
59014;SDS011;44799;53.382;14.666;2023-06-26T15:19:06;7.15;;;3.03;;
59014;SDS011;44799;53.382;14.666;2023-06-26T15:21:34;3.72;;;3.30;;
59014;SDS011;44799;53.382;14.666;2023-06-26T15:24:00;3.38;;;3.00;;
59014;SDS011;44799;53.382;14.666;2023-06-26T15:26:26;8.18;;;3.03;;
59014;SDS011;44799;53.382;14.666;2023-06-26T15:28:55;7.00;;;2.65;;
59014;SDS011;44799;53.382;14.666;2023-06-26T15:31:21;5.90;;;3.30;;
59014;SDS011;44799;53.382;14.666;2023-06-26T15:33:47;8.00;;;3.13;;
59014;SDS011;44799;53.382;14.666;2023-06-26T15:36:13;4.63;;;2.60;;
59014;SDS011;44799;53.382;14.666;2023-06-26T15:38:39;7.05;;;3.05;;
59014;SDS011;44799;53.382;14.666;2023-06-26T15:41:04;4.82;;;3.53;;
59014;SDS011;44799;53.382;14.666;2023-06-26T15:43:31;5.68;;;3.03;;
59014;SDS011;44799;53.382;14.666;2023-06-26T15:45:57;6.18;;;2.78;;
59014;SDS011;44799;53.382;14.666;2023-06-26T15:48:23;6.15;;;2.40;;
59014;SDS011;44799;53.382;14.666;2023-06-26T15:50:50;5.47;;;2.83;;
59014;SDS011;44799;53.382;14.666;2023-06-26T15:53:17;3.05;;;2.53;;
59014;SDS011;44799;53.382;14.666;2023-06-26T15:55:43;4.40;;;2.88;;
59014;SDS011;44799;53.382;14.666;2023-06-26T15:58:09;5.80;;;3.10;;
59014;SDS011;44799;53.382;14.666;2023-06-26T16:00:35;4.60;;;3.05;;
59014;SDS011;44799;53.382;14.666;2023-06-26T16:03:01;7.78;;;3.67;;
59014;SDS011;44799;53.382;14.666;2023-06-26T16:05:27;6.20;;;3.60;;
59014;SDS011;44799;53.382;14.666;2023-06-26T16:07:53;6.28;;;4.22;;
59014;SDS011;44799;53.382;14.666;2023-06-26T16:10:19;6.53;;;4.00;;
59014;SDS011;44799;53.382;14.666;2023-06-26T16:24:54;3.90;;;2.90;;
59014;SDS011;44799;53.382;14.666;2023-06-26T16:32:12;12.95;;;4.93;;
59014;SDS011;44799;53.382;14.666;2023-06-26T16:34:38;8.95;;;4.25;;
59014;SDS011;44799;53.382;14.666;2023-06-26T16:37:04;7.00;;;4.07;;
59014;SDS011;44799;53.382;14.666;2023-06-26T16:39:32;5.65;;;3.67;;
59014;SDS011;44799;53.382;14.666;2023-06-26T16:42:00;7.68;;;4.90;;
59014;SDS011;44799;53.382;14.666;2023-06-26T16:44:26;8.30;;;4.20;;
59014;SDS011;44799;53.382;14.666;2023-06-26T16:46:54;5.80;;;4.38;;
59014;SDS011;44799;53.382;14.666;2023-06-26T16:49:25;4.68;;;3.30;;
59014;SDS011;44799;53.382;14.666;2023-06-26T16:51:50;8.93;;;4.75;;
59014;SDS011;44799;53.382;14.666;2023-06-26T16:54:21;5.50;;;4.90;;
59014;SDS011;44799;53.382;14.666;2023-06-26T16:59:12;4.72;;;3.17;;
59014;SDS011;44799;53.382;14.666;2023-06-26T17:01:38;7.20;;;4.07;;
59014;SDS011;44799;53.382;14.666;2023-06-26T17:04:05;5.82;;;3.92;;
59014;SDS011;44799;53.382;14.666;2023-06-26T17:06:31;6.93;;;4.18;;
59014;SDS011;44799;53.382;14.666;2023-06-26T17:11:23;6.50;;;4.20;;
59014;SDS011;44799;53.382;14.666;2023-06-26T17:13:49;5.22;;;4.32;;
59014;SDS011;44799;53.382;14.666;2023-06-26T17:16:15;5.60;;;3.80;;
59014;SDS011;44799;53.382;14.666;2023-06-26T17:18:41;5.80;;;3.60;;
59014;SDS011;44799;53.382;14.666;2023-06-26T17:21:07;7.93;;;4.93;;
59014;SDS011;44799;53.382;14.666;2023-06-26T17:23:33;8.65;;;4.60;;
59014;SDS011;44799;53.382;14.666;2023-06-26T17:25:59;9.40;;;5.05;;
59014;SDS011;44799;53.382;14.666;2023-06-26T17:50:20;7.40;;;4.82;;
59014;SDS011;44799;53.382;14.666;2023-06-26T17:52:46;8.50;;;5.28;;
59014;SDS011;44799;53.382;14.666;2023-06-26T17:55:12;8.60;;;5.72;;
59014;SDS011;44799;53.382;14.666;2023-06-26T17:57:38;8.75;;;5.50;;
59014;SDS011;44799;53.382;14.666;2023-06-26T18:00:05;8.52;;;5.05;;
59014;SDS011;44799;53.382;14.666;2023-06-26T18:02:32;8.07;;;5.40;;
59014;SDS011;44799;53.382;14.666;2023-06-26T18:04:57;12.55;;;6.75;;
59014;SDS011;44799;53.382;14.666;2023-06-26T18:07:24;9.10;;;5.80;;
59014;SDS011;44799;53.382;14.666;2023-06-26T18:09:50;8.30;;;6.07;;
59014;SDS011;44799;53.382;14.666;2023-06-26T18:12:19;8.77;;;6.22;;
59014;SDS011;44799;53.382;14.666;2023-06-26T18:14:45;9.65;;;5.43;;
59014;SDS011;44799;53.382;14.666;2023-06-26T18:17:13;9.70;;;6.15;;
59014;SDS011;44799;53.382;14.666;2023-06-26T18:19:39;9.32;;;5.18;;
59014;SDS011;44799;53.382;14.666;2023-06-26T18:22:05;8.32;;;5.65;;
59014;SDS011;44799;53.382;14.666;2023-06-26T18:24:31;10.25;;;5.53;;
59014;SDS011;44799;53.382;14.666;2023-06-26T18:26:57;8.57;;;6.35;;
59014;SDS011;44799;53.382;14.666;2023-06-26T18:29:23;10.13;;;6.03;;
59014;SDS011;44799;53.382;14.666;2023-06-26T18:31:49;10.73;;;6.70;;
59014;SDS011;44799;53.382;14.666;2023-06-26T18:34:15;7.68;;;6.13;;
59014;SDS011;44799;53.382;14.666;2023-06-26T18:36:41;12.70;;;5.63;;
59014;SDS011;44799;53.382;14.666;2023-06-26T18:39:07;13.90;;;6.50;;
59014;SDS011;44799;53.382;14.666;2023-06-26T18:41:34;11.73;;;7.38;;
59014;SDS011;44799;53.382;14.666;2023-06-26T18:43:59;7.55;;;5.32;;
59014;SDS011;44799;53.382;14.666;2023-06-26T18:46:25;9.20;;;6.10;;
59014;SDS011;44799;53.382;14.666;2023-06-26T18:49:02;9.43;;;6.88;;
59014;SDS011;44799;53.382;14.666;2023-06-26T18:51:29;6.45;;;5.35;;
59014;SDS011;44799;53.382;14.666;2023-06-26T18:53:56;9.90;;;5.93;;
59014;SDS011;44799;53.382;14.666;2023-06-26T18:56:26;11.43;;;6.60;;
59014;SDS011;44799;53.382;14.666;2023-06-26T18:59:00;7.65;;;5.95;;
59014;SDS011;44799;53.382;14.666;2023-06-26T19:01:26;10.57;;;6.72;;
59014;SDS011;44799;53.382;14.666;2023-06-26T19:03:52;9.30;;;6.25;;
59014;SDS011;44799;53.382;14.666;2023-06-26T19:06:18;8.65;;;6.15;;
59014;SDS011;44799;53.382;14.666;2023-06-26T19:08:44;8.07;;;5.50;;
59014;SDS011;44799;53.382;14.666;2023-06-26T19:11:10;12.13;;;7.15;;
59014;SDS011;44799;53.382;14.666;2023-06-26T19:13:38;12.30;;;6.95;;
59014;SDS011;44799;53.382;14.666;2023-06-26T19:16:04;8.52;;;6.35;;
59014;SDS011;44799;53.382;14.666;2023-06-26T19:18:30;11.98;;;7.00;;
59014;SDS011;44799;53.382;14.666;2023-06-26T19:20:57;11.70;;;7.00;;
59014;SDS011;44799;53.382;14.666;2023-06-26T19:23:22;9.75;;;6.18;;
59014;SDS011;44799;53.382;14.666;2023-06-26T19:25:48;11.20;;;6.32;;
59014;SDS011;44799;53.382;14.666;2023-06-26T19:28:14;11.75;;;6.30;;
59014;SDS011;44799;53.382;14.666;2023-06-26T19:30:40;9.23;;;6.53;;
59014;SDS011;44799;53.382;14.666;2023-06-26T19:33:06;9.43;;;5.72;;
59014;SDS011;44799;53.382;14.666;2023-06-26T19:35:32;9.25;;;6.15;;
59014;SDS011;44799;53.382;14.666;2023-06-26T19:37:58;9.90;;;6.53;;
59014;SDS011;44799;53.382;14.666;2023-06-26T19:40:25;11.75;;;5.35;;
59014;SDS011;44799;53.382;14.666;2023-06-26T19:42:55;8.77;;;5.72;;
59014;SDS011;44799;53.382;14.666;2023-06-26T19:45:21;13.80;;;8.00;;
59014;SDS011;44799;53.382;14.666;2023-06-26T19:47:47;8.43;;;4.47;;
59014;SDS011;44799;53.382;14.666;2023-06-26T19:50:13;7.93;;;4.85;;
59014;SDS011;44799;53.382;14.666;2023-06-26T19:52:40;6.47;;;5.18;;
59014;SDS011;44799;53.382;14.666;2023-06-26T19:55:05;9.50;;;4.60;;
59014;SDS011;44799;53.382;14.666;2023-06-26T19:57:32;6.70;;;3.95;;
59014;SDS011;44799;53.382;14.666;2023-06-26T19:59:58;5.82;;;3.60;;
59014;SDS011;44799;53.382;14.666;2023-06-26T20:04:49;3.70;;;3.25;;
59014;SDS011;44799;53.382;14.666;2023-06-26T20:07:15;6.05;;;3.97;;
59014;SDS011;44799;53.382;14.666;2023-06-26T20:09:42;3.90;;;2.90;;
59014;SDS011;44799;53.382;14.666;2023-06-26T20:12:07;4.90;;;3.90;;
59014;SDS011;44799;53.382;14.666;2023-06-26T20:19:26;4.50;;;4.07;;
59014;SDS011;44799;53.382;14.666;2023-06-26T20:21:53;6.73;;;3.87;;
59014;SDS011;44799;53.382;14.666;2023-06-26T20:24:19;9.02;;;4.82;;
59014;SDS011;44799;53.382;14.666;2023-06-26T20:29:11;4.63;;;2.60;;
59014;SDS011;44799;53.382;14.666;2023-06-26T20:31:37;4.72;;;2.90;;
59014;SDS011;44799;53.382;14.666;2023-06-26T20:34:04;5.63;;;2.85;;
59014;SDS011;44799;53.382;14.666;2023-06-26T20:36:30;6.70;;;3.20;;
59014;SDS011;44799;53.382;14.666;2023-06-26T20:38:56;7.67;;;3.33;;
59014;SDS011;44799;53.382;14.666;2023-06-26T21:10:36;4.35;;;2.35;;
59014;SDS011;44799;53.382;14.666;2023-06-26T21:13:02;4.40;;;2.28;;
59014;SDS011;44799;53.382;14.666;2023-06-26T21:15:28;7.05;;;2.10;;
59014;SDS011;44799;53.382;14.666;2023-06-26T21:34:58;3.67;;;2.00;;
59014;SDS011;44799;53.382;14.666;2023-06-26T21:37:25;3.67;;;2.05;;
59014;SDS011;44799;53.382;14.666;2023-06-26T21:39:51;2.22;;;1.60;;
59014;SDS011;44799;53.382;14.666;2023-06-26T21:42:17;5.05;;;2.40;;
59014;SDS011;44799;53.382;14.666;2023-06-26T21:44:43;4.75;;;1.98;;
59014;SDS011;44799;53.382;14.666;2023-06-26T21:47:09;4.57;;;2.15;;
59014;SDS011;44799;53.382;14.666;2023-06-26T21:49:37;2.78;;;1.80;;
59014;SDS011;44799;53.382;14.666;2023-06-26T21:52:04;3.10;;;1.90;;
59014;SDS011;44799;53.382;14.666;2023-06-26T21:54:30;4.55;;;1.85;;
59014;SDS011;44799;53.382;14.666;2023-06-26T22:21:14;5.80;;;1.40;;
59014;SDS011;44799;53.382;14.666;2023-06-26T22:23:39;4.50;;;1.42;;
59014;SDS011;44799;53.382;14.666;2023-06-26T22:26:05;6.90;;;1.92;;
